createdAt,value
2019-04-21T00:04:43.231Z,"    0"
2019-04-21T00:09:55.838Z,"    0"
2019-04-21T00:14:45.041Z,"    0"
2019-04-21T00:19:33.210Z,"    0"
2019-04-21T00:24:43.444Z,"    0"
2019-04-21T00:29:49.153Z,"    0"
2019-04-21T00:34:30.052Z,"    0"
2019-04-21T00:44:35.876Z,"    0"
2019-04-21T00:49:47.869Z,"    0"
2019-04-21T00:54:50.919Z,"    0"
2019-04-21T00:59:46.382Z,"    0"
2019-04-21T01:04:53.883Z,"    0"
2019-04-21T01:09:37.488Z,"    0"
2019-04-21T01:14:50.084Z,"    0"
2019-04-21T01:19:42.241Z,"    0"
2019-04-21T01:24:30.731Z,"    0"
2019-04-21T01:29:45.913Z,"    0"
2019-04-21T01:34:46.380Z,"    0"
2019-04-21T01:39:51.359Z,"    0"
2019-04-21T01:44:58.542Z,"    0"
2019-04-21T01:49:34.735Z,"    0"
2019-04-21T01:54:40.426Z,"    0"
2019-04-21T01:59:35.277Z,"    0"
2019-04-21T02:10:00.476Z,"    0"
2019-04-21T02:14:46.286Z,"    0"
2019-04-21T02:19:31.208Z,"    0"
2019-04-21T02:24:42.691Z,"    0"
2019-04-21T02:29:41.247Z,"    0"
2019-04-21T02:34:57.454Z,"    0"
2019-04-21T02:39:49.530Z,"    0"
2019-04-21T02:44:51.982Z,"    0"
2019-04-21T02:49:56.052Z,"    0"
2019-04-21T02:55:03.312Z,"    0"
2019-04-21T02:59:54.790Z,"    0"
2019-04-21T03:05:02.202Z,"    0"
2019-04-21T03:14:56.105Z,"    0"
2019-04-21T03:19:51.900Z,"    0"
2019-04-21T03:25:04.376Z,"    0"
2019-04-21T03:39:45.524Z,"    0"
2019-04-21T03:44:37.333Z,"    0"
2019-04-21T03:54:46.496Z,"    0"
2019-04-21T03:59:40.635Z,"    0"
2019-04-21T04:04:35.627Z,"    0"
2019-04-21T04:09:45.262Z,"    0"
2019-04-21T04:14:40.008Z,"    0"
2019-04-21T04:19:44.699Z,"    5"
2019-04-21T04:25:03.501Z,"    5"
2019-04-21T04:29:31.769Z,"   10"
2019-04-21T04:34:41.255Z,"   10"
2019-04-21T04:39:45.666Z,"   15"
2019-04-21T05:04:37.921Z,"   40"
2019-04-21T05:24:18.856Z,"   60"
2019-04-21T05:29:10.827Z,"   60"
2019-04-21T05:34:18.537Z,"   65"
2019-04-21T05:39:14.668Z,"   70"
2019-04-21T05:44:21.293Z,"   75"
2019-04-21T05:49:20.556Z,"   75"
2019-04-21T05:54:24.019Z,"   80"
2019-04-21T05:59:12.144Z,"   85"
2019-04-21T06:04:34.748Z,"   90"
2019-04-21T06:09:19.000Z,"  100"
2019-04-21T06:14:16.388Z,"   95"
2019-04-21T06:19:12.770Z,"  110"
2019-04-21T06:24:18.766Z,"  115"
2019-04-21T06:29:14.968Z,"  100"
2019-04-21T06:34:16.702Z,"  100"
2019-04-21T06:39:17.799Z,"  105"
2019-04-21T06:44:18.083Z,"  105"
2019-04-21T06:49:08.073Z,"  110"
2019-04-21T06:54:32.282Z,"  110"
2019-04-21T06:59:09.692Z,"  130"
2019-04-21T07:04:18.549Z,"  130"
2019-04-21T07:09:20.280Z,"  120"
2019-04-21T07:14:25.687Z,"  120"
2019-04-21T07:19:21.850Z,"  125"
2019-04-21T07:24:14.749Z,"  140"
2019-04-21T07:29:15.404Z,"  575"
2019-04-21T07:34:17.344Z,"  545"
2019-04-21T07:39:06.200Z,"  250"
2019-04-21T07:44:00.134Z,"  170"
2019-04-21T07:49:11.367Z,"  175"
2019-04-21T07:54:14.804Z,"  150"
2019-04-21T07:59:02.814Z,"  255"
2019-04-21T08:04:16.567Z,"  800"
2019-04-21T08:09:07.147Z,"  735"
2019-04-21T08:14:06.943Z,"  900"
2019-04-21T08:19:12.911Z,"  800"
2019-04-21T08:24:07.755Z,"  965"
2019-04-21T08:29:20.660Z,"  470"
2019-04-21T08:34:14.003Z,"  460"
2019-04-21T08:39:08.805Z,"  325"
2019-04-21T08:44:05.209Z,"  180"
2019-04-21T08:49:00.821Z,"  160"
2019-04-21T08:54:13.900Z,"  165"
2019-04-21T09:03:58.851Z,"  175"
2019-04-21T09:09:03.615Z,"  280"
2019-04-21T09:14:01.572Z,"  215"
2019-04-21T09:18:54.249Z,"  245"
2019-04-21T09:23:55.970Z,"  215"
2019-04-21T09:28:52.217Z,"  185"
2019-04-21T09:33:46.568Z,"  185"
2019-04-21T09:38:42.422Z,"  205"
2019-04-21T09:43:45.338Z,"  805"
2019-04-21T09:48:51.406Z," 1265"
2019-04-21T09:53:43.241Z,"  270"
2019-04-21T09:58:44.594Z,"  240"
2019-04-21T10:03:44.787Z,"  880"
2019-04-21T10:08:39.139Z," 1215"
2019-04-21T10:13:36.773Z," 1395"
2019-04-21T10:18:35.739Z," 1410"
2019-04-21T10:23:31.967Z," 1390"
2019-04-21T10:28:28.868Z," 1345"
2019-04-21T10:33:26.299Z," 1460"
2019-04-21T10:38:30.456Z," 1535"
2019-04-21T10:43:24.351Z," 1505"
2019-04-21T10:48:21.085Z," 1575"
2019-04-21T10:53:17.059Z," 1460"
2019-04-21T10:58:14.151Z," 1375"
2019-04-21T11:03:10.941Z," 1290"
2019-04-21T11:08:20.543Z," 1640"
2019-04-21T11:13:08.406Z," 1580"
2019-04-21T11:18:04.374Z," 1585"
2019-04-21T11:23:01.690Z," 1465"
2019-04-21T11:27:58.703Z," 1525"
2019-04-21T11:32:55.265Z," 1420"
2019-04-21T11:37:53.458Z," 1485"
2019-04-21T11:42:51.708Z," 1450"
2019-04-21T11:47:48.225Z," 1505"
2019-04-21T11:52:45.166Z," 1505"
2019-04-21T11:57:44.958Z," 1460"
2019-04-21T12:02:41.644Z," 1625"
2019-04-21T12:07:38.390Z," 1440"
2019-04-21T12:12:33.085Z,"  340"
2019-04-21T12:17:28.009Z,"  410"
2019-04-21T12:22:28.201Z," 1005"
2019-04-21T12:27:20.458Z,"  635"
2019-04-21T12:32:15.950Z,"  200"
2019-04-21T12:37:11.002Z,"  475"
2019-04-21T12:42:06.803Z,"  180"
2019-04-21T12:47:03.707Z,"  795"
2019-04-21T12:52:01.832Z,"  780"
2019-04-21T12:56:59.215Z,"  270"
2019-04-21T13:01:54.859Z,"  450"
2019-04-21T13:06:50.173Z,"  180"
2019-04-21T13:11:47.204Z,"  150"
2019-04-21T13:16:43.446Z," 1385"
2019-04-21T13:21:40.328Z,"  435"
2019-04-21T13:26:43.918Z,"  135"
2019-04-21T13:31:38.328Z,"  135"
2019-04-21T13:36:33.795Z,"  140"
2019-04-21T13:41:42.984Z,"  175"
2019-04-21T13:46:31.028Z,"  125"
2019-04-21T13:51:27.004Z,"  125"
2019-04-21T13:56:22.961Z,"  120"
2019-04-21T14:01:19.095Z,"  120"
2019-04-21T14:06:16.233Z,"  120"
2019-04-21T14:11:13.290Z,"  140"
2019-04-21T14:16:09.694Z,"  125"
2019-04-21T14:21:07.251Z,"  120"
2019-04-21T14:26:03.846Z,"  120"
2019-04-21T14:31:02.127Z," 1225"
2019-04-21T14:35:58.909Z," 1125"
2019-04-21T14:40:54.790Z,"  115"
2019-04-21T14:45:50.653Z,"  110"
2019-04-21T14:50:48.368Z,"  110"
2019-04-21T14:55:45.478Z,"  110"
2019-04-21T15:00:41.874Z,"  105"
2019-04-21T15:05:37.698Z,"  100"
2019-04-21T15:10:35.155Z,"  100"
2019-04-21T15:15:31.787Z,"   95"
2019-04-21T15:20:28.707Z,"   95"
2019-04-21T15:25:24.079Z,"   95"
2019-04-21T15:30:21.000Z,"   95"
2019-04-21T15:35:17.382Z,"   90"
2019-04-21T15:40:21.776Z,"   90"
2019-04-21T15:45:13.046Z,"   90"
2019-04-21T15:50:14.318Z,"   90"
2019-04-21T15:55:08.571Z,"   85"
2019-04-21T16:00:04.721Z,"   85"
2019-04-21T16:05:01.589Z,"   85"
2019-04-21T16:09:59.759Z,"   80"
2019-04-21T16:14:54.878Z,"   80"
2019-04-21T16:19:52.158Z,"   80"
2019-04-21T16:24:48.769Z,"   75"
2019-04-21T16:29:45.744Z,"   75"
2019-04-21T16:34:49.249Z,"   75"
2019-04-21T16:39:41.313Z,"   75"
2019-04-21T16:44:37.285Z,"   70"
2019-04-21T16:49:33.720Z,"   70"
2019-04-21T16:54:31.544Z,"   65"
2019-04-21T16:59:28.730Z,"   65"
2019-04-21T17:04:24.512Z,"   65"
2019-04-21T17:09:20.919Z,"   60"
2019-04-21T17:14:33.151Z,"   65"
2019-04-21T17:19:24.119Z,"   65"
2019-04-21T17:24:17.301Z,"   50"
2019-04-21T17:29:12.599Z,"   50"
2019-04-21T17:34:13.757Z,"   45"
2019-04-21T17:39:08.988Z,"   45"
2019-04-21T17:44:04.817Z,"   40"
2019-04-21T17:49:01.302Z,"   40"
2019-04-21T17:54:00.715Z,"   35"
2019-04-21T17:59:17.686Z,"   30"
2019-04-21T18:04:15.481Z,"   25"
2019-04-21T18:09:21.947Z,"   20"
2019-04-21T18:13:55.589Z,"   15"
2019-04-21T18:18:51.016Z,"   10"
2019-04-21T18:23:54.759Z,"   10"
2019-04-21T18:28:55.306Z,"    5"
2019-04-21T18:33:59.024Z,"    5"
2019-04-21T18:39:14.230Z,"    0"
2019-04-21T18:44:23.663Z,"    0"
2019-04-21T18:48:53.844Z,"    0"
2019-04-21T18:54:07.044Z,"    0"
2019-04-21T18:58:50.932Z,"    0"
2019-04-21T19:03:50.771Z,"    0"
2019-04-21T19:09:03.847Z,"    0"
2019-04-21T19:14:20.913Z,"    0"
2019-04-21T19:19:34.142Z,"    0"
2019-04-21T19:24:18.617Z,"    0"
2019-04-21T19:29:16.385Z,"    0"
2019-04-21T19:33:55.383Z,"    0"
2019-04-21T19:38:58.230Z,"    0"
2019-04-21T19:44:03.561Z,"    0"
2019-04-21T19:49:10.114Z,"    0"
2019-04-21T19:53:55.024Z,"    0"
2019-04-21T19:58:46.052Z,"    0"
2019-04-21T20:03:43.141Z,"    0"
2019-04-21T20:09:00.708Z,"    0"
2019-04-21T20:14:26.341Z,"    0"
2019-04-21T20:18:51.459Z,"    0"
2019-04-21T20:23:43.231Z,"    0"
2019-04-21T20:28:48.946Z,"    0"
2019-04-21T20:33:59.234Z,"    0"
2019-04-21T20:38:49.069Z,"    0"
2019-04-21T20:44:01.022Z,"    0"
2019-04-21T20:49:00.086Z,"    0"
2019-04-21T20:53:53.728Z,"    0"
2019-04-21T20:59:04.503Z,"    0"
2019-04-21T21:03:54.100Z,"    0"
2019-04-21T21:08:55.209Z,"    0"
2019-04-21T21:13:58.743Z,"    0"
2019-04-21T21:19:23.424Z,"    0"
2019-04-21T21:23:56.260Z,"    0"
2019-04-21T21:28:52.037Z,"    0"
2019-04-21T21:34:08.207Z,"    0"
2019-04-21T21:38:59.539Z,"    0"
2019-04-21T21:43:39.434Z,"    0"
2019-04-21T21:48:44.955Z,"    0"
2019-04-21T21:53:40.657Z,"    0"
2019-04-21T21:58:41.610Z,"    0"
2019-04-21T22:03:40.896Z,"    0"
2019-04-21T22:08:36.498Z,"    0"
2019-04-21T22:13:42.443Z,"    0"
2019-04-21T22:18:58.263Z,"    0"
2019-04-21T22:23:46.997Z,"    0"
2019-04-21T22:28:31.668Z,"    0"
2019-04-21T22:33:32.221Z,"    0"
2019-04-21T22:38:40.834Z,"    0"
2019-04-21T22:43:32.674Z,"    0"
2019-04-21T22:48:28.985Z,"    0"
2019-04-21T22:53:29.250Z,"    0"
2019-04-21T22:58:29.314Z,"    0"
2019-04-21T23:03:25.216Z,"    0"
2019-04-21T23:08:27.931Z,"    0"
2019-04-21T23:13:24.136Z,"    0"
2019-04-21T23:18:37.632Z,"    0"
2019-04-21T23:23:43.059Z,"    0"
2019-04-21T23:28:43.783Z,"    0"
2019-04-21T23:33:22.029Z,"    0"
2019-04-21T23:38:27.830Z,"    0"
2019-04-21T23:43:24.406Z,"    0"
2019-04-21T23:48:30.133Z,"    0"
2019-04-21T23:53:19.572Z,"    0"
2019-04-21T23:58:22.252Z,"    0"
